sensor_id;sensor_type;location;lat;lon;timestamp;pressure;altitude;pressure_sealevel;temperature;humidity
53619;BME280;68717;53.040;18.488;2023-05-02T00:00:03;101021.44;;;10.77;75.50
53619;BME280;68717;53.040;18.488;2023-05-02T00:00:16;101018.75;;;10.77;75.39
53619;BME280;68717;53.040;18.488;2023-05-02T00:00:48;101025.97;;;10.77;75.26
53619;BME280;68717;53.040;18.488;2023-05-02T00:01:02;101020.72;;;10.75;75.32
53619;BME280;68717;53.040;18.488;2023-05-02T00:01:17;101018.03;;;10.75;75.31
53619;BME280;68717;53.040;18.488;2023-05-02T00:01:30;101016.34;;;10.74;75.41
53619;BME280;68717;53.040;18.488;2023-05-02T00:01:42;101020.88;;;10.74;75.60
53619;BME280;68717;53.040;18.488;2023-05-02T00:01:55;101020.13;;;10.72;75.56
53619;BME280;68717;53.040;18.488;2023-05-02T00:02:08;101016.56;;;10.71;75.64
53619;BME280;68717;53.040;18.488;2023-05-02T00:02:21;101015.75;;;10.71;75.86
53619;BME280;68717;53.040;18.488;2023-05-02T00:02:34;101015.75;;;10.71;75.89
53619;BME280;68717;53.040;18.488;2023-05-02T00:02:47;101016.56;;;10.71;76.02
53619;BME280;68717;53.040;18.488;2023-05-02T00:03:00;101018.41;;;10.71;75.96
53619;BME280;68717;53.040;18.488;2023-05-02T00:03:13;101023.78;;;10.71;76.00
53619;BME280;68717;53.040;18.488;2023-05-02T00:03:26;101018.56;;;10.69;75.98
53619;BME280;68717;53.040;18.488;2023-05-02T00:03:38;101021.25;;;10.69;76.02
53619;BME280;68717;53.040;18.488;2023-05-02T00:03:53;101019.66;;;10.66;76.29
53619;BME280;68717;53.040;18.488;2023-05-02T00:04:06;101020.53;;;10.67;76.37
53619;BME280;68717;53.040;18.488;2023-05-02T00:04:19;101021.47;;;10.66;76.25
53619;BME280;68717;53.040;18.488;2023-05-02T00:04:32;101017.13;;;10.65;76.13
53619;BME280;68717;53.040;18.488;2023-05-02T00:04:45;101021.59;;;10.64;75.90
53619;BME280;68717;53.040;18.488;2023-05-02T00:04:58;101015.41;;;10.64;75.88
53619;BME280;68717;53.040;18.488;2023-05-02T00:05:10;101020.75;;;10.64;75.98
53619;BME280;68717;53.040;18.488;2023-05-02T00:05:24;101026.13;;;10.64;75.75
53619;BME280;68717;53.040;18.488;2023-05-02T00:05:37;101022.59;;;10.63;75.75
53619;BME280;68717;53.040;18.488;2023-05-02T00:05:49;101024.28;;;10.64;75.69
53619;BME280;68717;53.040;18.488;2023-05-02T00:06:02;101020.75;;;10.64;75.53
53619;BME280;68717;53.040;18.488;2023-05-02T00:06:15;101023.44;;;10.64;75.38
53619;BME280;68717;53.040;18.488;2023-05-02T00:06:29;101016.38;;;10.63;75.17
53619;BME280;68717;53.040;18.488;2023-05-02T00:06:43;101018.06;;;10.64;75.38
53619;BME280;68717;53.040;18.488;2023-05-02T00:06:57;101019.91;;;10.63;75.30
53619;BME280;68717;53.040;18.488;2023-05-02T00:07:10;101020.75;;;10.64;75.65
53619;BME280;68717;53.040;18.488;2023-05-02T00:07:24;101018.06;;;10.64;75.60
53619;BME280;68717;53.040;18.488;2023-05-02T00:07:37;101018.91;;;10.64;75.98
53619;BME280;68717;53.040;18.488;2023-05-02T00:07:50;101016.25;;;10.64;76.34
53619;BME280;68717;53.040;18.488;2023-05-02T00:08:04;101022.47;;;10.65;76.44
53619;BME280;68717;53.040;18.488;2023-05-02T00:08:17;101015.28;;;10.65;76.25
53619;BME280;68717;53.040;18.488;2023-05-02T00:08:29;101018.81;;;10.66;75.98
53619;BME280;68717;53.040;18.488;2023-05-02T00:08:42;101020.75;;;10.64;75.74
53619;BME280;68717;53.040;18.488;2023-05-02T00:08:54;101012.59;;;10.65;75.84
53619;BME280;68717;53.040;18.488;2023-05-02T00:09:07;101019.78;;;10.65;75.90
53619;BME280;68717;53.040;18.488;2023-05-02T00:09:20;101016.25;;;10.64;75.80
53619;BME280;68717;53.040;18.488;2023-05-02T00:09:34;101015.28;;;10.65;75.73
53619;BME280;68717;53.040;18.488;2023-05-02T00:09:46;101018.06;;;10.64;75.54
53619;BME280;68717;53.040;18.488;2023-05-02T00:09:59;101014.56;;;10.63;75.73
53619;BME280;68717;53.040;18.488;2023-05-02T00:10:14;101007.47;;;10.62;75.74
53619;BME280;68717;53.040;18.488;2023-05-02T00:10:26;101014.66;;;10.62;75.80
53619;BME280;68717;53.040;18.488;2023-05-02T00:10:39;101003.94;;;10.62;75.59
53619;BME280;68717;53.040;18.488;2023-05-02T00:10:51;101017.34;;;10.62;75.63
53619;BME280;68717;53.040;18.488;2023-05-02T00:11:05;101012.00;;;10.62;75.84
53619;BME280;68717;53.040;18.488;2023-05-02T00:11:17;101011.13;;;10.61;75.92
53619;BME280;68717;53.040;18.488;2023-05-02T00:11:30;101015.66;;;10.61;76.09
53619;BME280;68717;53.040;18.488;2023-05-02T00:11:43;101008.56;;;10.60;76.28
53619;BME280;68717;53.040;18.488;2023-05-02T00:11:56;101009.47;;;10.60;76.23
53619;BME280;68717;53.040;18.488;2023-05-02T00:12:08;101011.13;;;10.61;76.41
53619;BME280;68717;53.040;18.488;2023-05-02T00:12:21;101009.47;;;10.60;76.41
53619;BME280;68717;53.040;18.488;2023-05-02T00:12:36;101010.28;;;10.61;76.50
53619;BME280;68717;53.040;18.488;2023-05-02T00:12:48;101009.47;;;10.60;76.58
53619;BME280;68717;53.040;18.488;2023-05-02T00:13:01;101008.56;;;10.60;76.83
53619;BME280;68717;53.040;18.488;2023-05-02T00:13:13;101013.09;;;10.59;76.97
53619;BME280;68717;53.040;18.488;2023-05-02T00:13:26;101006.88;;;10.59;76.93
53619;BME280;68717;53.040;18.488;2023-05-02T00:13:39;101007.00;;;10.57;76.99
53619;BME280;68717;53.040;18.488;2023-05-02T00:13:51;101001.75;;;10.56;77.10
53619;BME280;68717;53.040;18.488;2023-05-02T00:14:05;101017.00;;;10.55;77.08
53619;BME280;68717;53.040;18.488;2023-05-02T00:14:17;101010.69;;;10.56;77.09
53619;BME280;68717;53.040;18.488;2023-05-02T00:14:30;101009.81;;;10.56;77.28
53619;BME280;68717;53.040;18.488;2023-05-02T00:14:42;101004.44;;;10.56;77.09
53619;BME280;68717;53.040;18.488;2023-05-02T00:14:55;101003.59;;;10.55;77.29
53619;BME280;68717;53.040;18.488;2023-05-02T00:15:08;101008.00;;;10.56;77.39
53619;BME280;68717;53.040;18.488;2023-05-02T00:15:21;101009.81;;;10.56;77.75
53619;BME280;68717;53.040;18.488;2023-05-02T00:15:35;101008.00;;;10.56;77.71
53619;BME280;68717;53.040;18.488;2023-05-02T00:15:48;101007.13;;;10.56;77.72
53619;BME280;68717;53.040;18.488;2023-05-02T00:16:00;101004.31;;;10.57;77.90
53619;BME280;68717;53.040;18.488;2023-05-02T00:16:13;101001.75;;;10.56;77.77
53619;BME280;68717;53.040;18.488;2023-05-02T00:16:25;100996.41;;;10.56;77.64
53619;BME280;68717;53.040;18.488;2023-05-02T00:16:38;101000.81;;;10.57;77.80
53619;BME280;68717;53.040;18.488;2023-05-02T00:16:50;100996.41;;;10.56;77.59
53619;BME280;68717;53.040;18.488;2023-05-02T00:17:03;100999.97;;;10.56;77.72
53619;BME280;68717;53.040;18.488;2023-05-02T00:17:17;101000.91;;;10.55;77.88
53619;BME280;68717;53.040;18.488;2023-05-02T00:17:31;100998.25;;;10.55;78.02
53619;BME280;68717;53.040;18.488;2023-05-02T00:17:43;101005.44;;;10.55;78.14
53619;BME280;68717;53.040;18.488;2023-05-02T00:17:56;101003.59;;;10.55;78.49
53619;BME280;68717;53.040;18.488;2023-05-02T00:18:09;100998.34;;;10.54;78.52
53619;BME280;68717;53.040;18.488;2023-05-02T00:18:22;101004.72;;;10.53;78.92
53619;BME280;68717;53.040;18.488;2023-05-02T00:18:35;101003.97;;;10.51;79.12
53619;BME280;68717;53.040;18.488;2023-05-02T00:18:49;101005.69;;;10.52;79.21
53619;BME280;68717;53.040;18.488;2023-05-02T00:19:01;101002.16;;;10.51;79.37
53619;BME280;68717;53.040;18.488;2023-05-02T00:19:14;101000.34;;;10.52;79.58
53619;BME280;68717;53.040;18.488;2023-05-02T00:19:27;100998.63;;;10.51;79.89
53619;BME280;68717;53.040;18.488;2023-05-02T00:19:40;101003.03;;;10.52;80.60
53619;BME280;68717;53.040;18.488;2023-05-02T00:19:52;100995.09;;;10.50;80.56
53619;BME280;68717;53.040;18.488;2023-05-02T00:20:05;100998.63;;;10.51;80.94
53619;BME280;68717;53.040;18.488;2023-05-02T00:20:20;101001.31;;;10.51;80.90
53619;BME280;68717;53.040;18.488;2023-05-02T00:20:33;100998.63;;;10.51;80.79
53619;BME280;68717;53.040;18.488;2023-05-02T00:20:45;100999.47;;;10.51;80.65
53619;BME280;68717;53.040;18.488;2023-05-02T00:20:58;101001.31;;;10.51;80.55
53619;BME280;68717;53.040;18.488;2023-05-02T00:21:11;101001.31;;;10.51;80.48
53619;BME280;68717;53.040;18.488;2023-05-02T00:21:24;101000.47;;;10.50;80.14
53619;BME280;68717;53.040;18.488;2023-05-02T00:21:40;100992.41;;;10.50;80.05
53619;BME280;68717;53.040;18.488;2023-05-02T00:21:52;101003.97;;;10.51;80.18
53619;BME280;68717;53.040;18.488;2023-05-02T00:22:05;100993.25;;;10.51;80.18
53619;BME280;68717;53.040;18.488;2023-05-02T00:22:17;100997.78;;;10.50;80.07
53619;BME280;68717;53.040;18.488;2023-05-02T00:22:30;101002.28;;;10.50;80.04
53619;BME280;68717;53.040;18.488;2023-05-02T00:22:43;100997.91;;;10.48;79.78
53619;BME280;68717;53.040;18.488;2023-05-02T00:22:56;100998.88;;;10.47;79.23
53619;BME280;68717;53.040;18.488;2023-05-02T00:23:09;100998.88;;;10.47;79.09
53619;BME280;68717;53.040;18.488;2023-05-02T00:23:24;101000.56;;;10.48;78.58
53619;BME280;68717;53.040;18.488;2023-05-02T00:23:36;100995.22;;;10.48;78.38
53619;BME280;68717;53.040;18.488;2023-05-02T00:23:50;100997.91;;;10.48;78.35
53619;BME280;68717;53.040;18.488;2023-05-02T00:24:03;100997.91;;;10.48;78.12
53619;BME280;68717;53.040;18.488;2023-05-02T00:24:16;100997.91;;;10.48;78.32
53619;BME280;68717;53.040;18.488;2023-05-02T00:24:30;100996.19;;;10.47;78.40
53619;BME280;68717;53.040;18.488;2023-05-02T00:24:42;101001.56;;;10.47;78.47
53619;BME280;68717;53.040;18.488;2023-05-02T00:24:55;100999.72;;;10.48;78.24
53619;BME280;68717;53.040;18.488;2023-05-02T00:25:09;101002.41;;;10.48;78.63
53619;BME280;68717;53.040;18.488;2023-05-02T00:25:21;101002.53;;;10.46;78.88
53619;BME280;68717;53.040;18.488;2023-05-02T00:25:34;100999.84;;;10.46;78.81
53619;BME280;68717;53.040;18.488;2023-05-02T00:25:48;100998.88;;;10.47;79.01
53619;BME280;68717;53.040;18.488;2023-05-02T00:26:01;100994.47;;;10.46;79.08
53619;BME280;68717;53.040;18.488;2023-05-02T00:26:13;100994.47;;;10.46;79.31
53619;BME280;68717;53.040;18.488;2023-05-02T00:26:26;100998.88;;;10.47;79.37
53619;BME280;68717;53.040;18.488;2023-05-02T00:26:40;100992.66;;;10.47;79.31
53619;BME280;68717;53.040;18.488;2023-05-02T00:26:53;100991.81;;;10.46;79.33
53619;BME280;68717;53.040;18.488;2023-05-02T00:27:06;100994.38;;;10.48;79.18
53619;BME280;68717;53.040;18.488;2023-05-02T00:27:19;100986.44;;;10.46;78.95
53619;BME280;68717;53.040;18.488;2023-05-02T00:27:32;100990.97;;;10.46;78.78
53619;BME280;68717;53.040;18.488;2023-05-02T00:27:46;100998.16;;;10.45;78.47
53619;BME280;68717;53.040;18.488;2023-05-02T00:28:00;100993.75;;;10.44;78.44
53619;BME280;68717;53.040;18.488;2023-05-02T00:28:12;100998.28;;;10.44;78.64
53619;BME280;68717;53.040;18.488;2023-05-02T00:28:25;100992.06;;;10.43;78.49
53619;BME280;68717;53.040;18.488;2023-05-02T00:28:38;100990.34;;;10.42;78.87
53619;BME280;68717;53.040;18.488;2023-05-02T00:28:51;100993.91;;;10.43;79.01
53619;BME280;68717;53.040;18.488;2023-05-02T00:29:04;100987.66;;;10.42;78.72
53619;BME280;68717;53.040;18.488;2023-05-02T00:29:16;100991.34;;;10.41;78.91
53619;BME280;68717;53.040;18.488;2023-05-02T00:29:29;100991.34;;;10.41;79.04
53619;BME280;68717;53.040;18.488;2023-05-02T00:29:42;100987.81;;;10.41;79.23
53619;BME280;68717;53.040;18.488;2023-05-02T00:29:55;100981.59;;;10.40;79.05
53619;BME280;68717;53.040;18.488;2023-05-02T00:30:09;100989.78;;;10.39;78.99
53619;BME280;68717;53.040;18.488;2023-05-02T00:30:22;100989.78;;;10.39;78.84
53619;BME280;68717;53.040;18.488;2023-05-02T00:30:35;100987.22;;;10.37;78.76
53619;BME280;68717;53.040;18.488;2023-05-02T00:30:47;100991.72;;;10.37;79.03
53619;BME280;68717;53.040;18.488;2023-05-02T00:31:00;100980.13;;;10.36;79.04
53619;BME280;68717;53.040;18.488;2023-05-02T00:31:14;100982.94;;;10.35;78.89
53619;BME280;68717;53.040;18.488;2023-05-02T00:31:27;100984.63;;;10.36;78.71
53619;BME280;68717;53.040;18.488;2023-05-02T00:31:40;100992.69;;;10.36;78.39
53619;BME280;68717;53.040;18.488;2023-05-02T00:31:53;100982.94;;;10.35;78.38
53619;BME280;68717;53.040;18.488;2023-05-02T00:32:05;100990.00;;;10.36;78.33
53619;BME280;68717;53.040;18.488;2023-05-02T00:32:18;100982.09;;;10.34;78.68
53619;BME280;68717;53.040;18.488;2023-05-02T00:32:31;100982.09;;;10.34;78.51
53619;BME280;68717;53.040;18.488;2023-05-02T00:32:44;100982.09;;;10.34;78.58
53619;BME280;68717;53.040;18.488;2023-05-02T00:32:57;100981.22;;;10.34;78.38
53619;BME280;68717;53.040;18.488;2023-05-02T00:33:10;100981.22;;;10.34;78.62
53619;BME280;68717;53.040;18.488;2023-05-02T00:33:23;100982.22;;;10.33;78.99
53619;BME280;68717;53.040;18.488;2023-05-02T00:33:36;100980.38;;;10.33;78.95
53619;BME280;68717;53.040;18.488;2023-05-02T00:33:48;100983.06;;;10.33;79.11
53619;BME280;68717;53.040;18.488;2023-05-02T00:34:01;100985.75;;;10.33;78.81
53619;BME280;68717;53.040;18.488;2023-05-02T00:34:15;100982.22;;;10.33;78.58
53619;BME280;68717;53.040;18.488;2023-05-02T00:34:28;100984.06;;;10.32;78.22
53619;BME280;68717;53.040;18.488;2023-05-02T00:34:41;100980.38;;;10.33;77.77
53619;BME280;68717;53.040;18.488;2023-05-02T00:34:54;100983.91;;;10.34;78.13
53619;BME280;68717;53.040;18.488;2023-05-02T00:35:07;100976.75;;;10.34;78.23
53619;BME280;68717;53.040;18.488;2023-05-02T00:35:20;100982.94;;;10.35;78.25
53619;BME280;68717;53.040;18.488;2023-05-02T00:35:34;100984.78;;;10.34;78.24
53619;BME280;68717;53.040;18.488;2023-05-02T00:35:46;100983.81;;;10.35;78.24
53619;BME280;68717;53.040;18.488;2023-05-02T00:35:59;100982.81;;;10.36;78.37
53619;BME280;68717;53.040;18.488;2023-05-02T00:36:15;100980.13;;;10.36;78.57
53619;BME280;68717;53.040;18.488;2023-05-02T00:36:27;100982.81;;;10.36;78.61
53619;BME280;68717;53.040;18.488;2023-05-02T00:36:40;100981.00;;;10.37;78.63
53619;BME280;68717;53.040;18.488;2023-05-02T00:36:53;100981.00;;;10.37;78.73
53619;BME280;68717;53.040;18.488;2023-05-02T00:37:06;100980.13;;;10.36;78.67
53619;BME280;68717;53.040;18.488;2023-05-02T00:37:19;100974.75;;;10.36;78.38
53619;BME280;68717;53.040;18.488;2023-05-02T00:37:32;100981.00;;;10.37;78.52
53619;BME280;68717;53.040;18.488;2023-05-02T00:37:45;100984.53;;;10.37;79.06
53619;BME280;68717;53.040;18.488;2023-05-02T00:37:58;100981.84;;;10.37;79.72
53619;BME280;68717;53.040;18.488;2023-05-02T00:38:11;100982.69;;;10.38;80.07
53619;BME280;68717;53.040;18.488;2023-05-02T00:38:23;100979.16;;;10.37;80.46
53619;BME280;68717;53.040;18.488;2023-05-02T00:38:37;100985.38;;;10.38;80.83
53619;BME280;68717;53.040;18.488;2023-05-02T00:38:49;100981.00;;;10.37;81.07
53619;BME280;68717;53.040;18.488;2023-05-02T00:39:02;100979.06;;;10.39;81.35
53619;BME280;68717;53.040;18.488;2023-05-02T00:39:15;100977.31;;;10.38;81.59
53619;BME280;68717;53.040;18.488;2023-05-02T00:39:28;100972.81;;;10.38;81.46
53619;BME280;68717;53.040;18.488;2023-05-02T00:39:40;100975.50;;;10.38;81.72
53619;BME280;68717;53.040;18.488;2023-05-02T00:39:53;100973.69;;;10.39;81.72
53619;BME280;68717;53.040;18.488;2023-05-02T00:40:07;100979.91;;;10.39;81.55
53619;BME280;68717;53.040;18.488;2023-05-02T00:40:20;100978.16;;;10.38;81.35
53619;BME280;68717;53.040;18.488;2023-05-02T00:40:42;100974.53;;;10.39;81.43
53619;BME280;68717;53.040;18.488;2023-05-02T00:40:55;100971.84;;;10.39;81.25
53619;BME280;68717;53.040;18.488;2023-05-02T00:41:07;100977.22;;;10.39;81.03
53619;BME280;68717;53.040;18.488;2023-05-02T00:41:22;100971.97;;;10.38;80.94
53619;BME280;68717;53.040;18.488;2023-05-02T00:41:34;100977.22;;;10.39;80.83
53619;BME280;68717;53.040;18.488;2023-05-02T00:41:47;100972.81;;;10.38;80.71
53619;BME280;68717;53.040;18.488;2023-05-02T00:42:00;100973.69;;;10.39;80.62
53619;BME280;68717;53.040;18.488;2023-05-02T00:42:13;100980.72;;;10.40;80.82
53619;BME280;68717;53.040;18.488;2023-05-02T00:42:25;100973.69;;;10.39;80.77
53619;BME280;68717;53.040;18.488;2023-05-02T00:42:42;100973.69;;;10.39;80.82
53619;BME280;68717;53.040;18.488;2023-05-02T00:42:57;100973.53;;;10.40;80.99
53619;BME280;68717;53.040;18.488;2023-05-02T00:43:09;100975.38;;;10.40;81.12
53619;BME280;68717;53.040;18.488;2023-05-02T00:43:22;100971.75;;;10.41;81.09
53619;BME280;68717;53.040;18.488;2023-05-02T00:43:34;100977.22;;;10.39;81.25
53619;BME280;68717;53.040;18.488;2023-05-02T00:43:47;100970.88;;;10.40;81.41
53619;BME280;68717;53.040;18.488;2023-05-02T00:44:01;100974.41;;;10.41;81.58
53619;BME280;68717;53.040;18.488;2023-05-02T00:44:13;100964.53;;;10.41;81.63
53619;BME280;68717;53.040;18.488;2023-05-02T00:44:26;100971.59;;;10.42;81.73
53619;BME280;68717;53.040;18.488;2023-05-02T00:44:39;100969.91;;;10.41;81.88
53619;BME280;68717;53.040;18.488;2023-05-02T00:44:51;100968.91;;;10.42;82.05
53619;BME280;68717;53.040;18.488;2023-05-02T00:45:05;100976.84;;;10.44;81.96
53619;BME280;68717;53.040;18.488;2023-05-02T00:45:18;100975.16;;;10.43;82.29
53619;BME280;68717;53.040;18.488;2023-05-02T00:45:31;100975.16;;;10.43;82.26
53619;BME280;68717;53.040;18.488;2023-05-02T00:45:44;100972.56;;;10.41;82.53
53619;BME280;68717;53.040;18.488;2023-05-02T00:45:57;100976.00;;;10.43;82.65
53619;BME280;68717;53.040;18.488;2023-05-02T00:46:10;100972.56;;;10.41;82.49
53619;BME280;68717;53.040;18.488;2023-05-02T00:46:24;100975.16;;;10.43;82.68
53619;BME280;68717;53.040;18.488;2023-05-02T00:46:37;100973.31;;;10.43;82.73
53619;BME280;68717;53.040;18.488;2023-05-02T00:46:50;100975.16;;;10.43;82.57
53619;BME280;68717;53.040;18.488;2023-05-02T00:47:04;100974.28;;;10.42;82.59
53619;BME280;68717;53.040;18.488;2023-05-02T00:47:17;100976.00;;;10.43;82.24
53619;BME280;68717;53.040;18.488;2023-05-02T00:47:30;100975.16;;;10.43;82.29
53619;BME280;68717;53.040;18.488;2023-05-02T00:47:42;100971.59;;;10.42;82.10
53619;BME280;68717;53.040;18.488;2023-05-02T00:47:55;100974.28;;;10.42;82.01
53619;BME280;68717;53.040;18.488;2023-05-02T00:48:09;100972.47;;;10.43;82.13
53619;BME280;68717;53.040;18.488;2023-05-02T00:48:22;100971.47;;;10.44;81.92
53619;BME280;68717;53.040;18.488;2023-05-02T00:48:37;100971.47;;;10.44;82.15
53619;BME280;68717;53.040;18.488;2023-05-02T00:48:50;100979.50;;;10.44;82.10
53619;BME280;68717;53.040;18.488;2023-05-02T00:49:03;100975.00;;;10.44;82.05
53619;BME280;68717;53.040;18.488;2023-05-02T00:49:15;100976.00;;;10.43;82.14
53619;BME280;68717;53.040;18.488;2023-05-02T00:49:28;100969.78;;;10.43;82.15
53619;BME280;68717;53.040;18.488;2023-05-02T00:49:41;100969.06;;;10.41;81.73
53619;BME280;68717;53.040;18.488;2023-05-02T00:49:54;100967.22;;;10.41;81.38
53619;BME280;68717;53.040;18.488;2023-05-02T00:50:08;100967.22;;;10.41;80.88
53619;BME280;68717;53.040;18.488;2023-05-02T00:50:20;100967.22;;;10.41;80.50
53619;BME280;68717;53.040;18.488;2023-05-02T00:50:34;100976.22;;;10.40;80.33
53619;BME280;68717;53.040;18.488;2023-05-02T00:50:48;100971.75;;;10.41;79.90
53619;BME280;68717;53.040;18.488;2023-05-02T00:51:02;100974.53;;;10.39;79.53
53619;BME280;68717;53.040;18.488;2023-05-02T00:51:16;100968.19;;;10.40;79.33
53619;BME280;68717;53.040;18.488;2023-05-02T00:51:31;100971.75;;;10.41;79.24
53619;BME280;68717;53.040;18.488;2023-05-02T00:51:44;100975.25;;;10.41;79.04
53619;BME280;68717;53.040;18.488;2023-05-02T00:51:57;100968.91;;;10.42;79.08
53619;BME280;68717;53.040;18.488;2023-05-02T00:52:10;100968.91;;;10.42;79.13
53619;BME280;68717;53.040;18.488;2023-05-02T00:52:22;100970.63;;;10.43;79.40
53619;BME280;68717;53.040;18.488;2023-05-02T00:52:36;100969.91;;;10.41;79.52
53619;BME280;68717;53.040;18.488;2023-05-02T00:52:49;100966.09;;;10.44;79.35
53619;BME280;68717;53.040;18.488;2023-05-02T00:53:02;100972.31;;;10.44;79.68
53619;BME280;68717;53.040;18.488;2023-05-02T00:53:15;100974.03;;;10.45;79.34
53619;BME280;68717;53.040;18.488;2023-05-02T00:53:28;100969.63;;;10.44;79.42
53619;BME280;68717;53.040;18.488;2023-05-02T00:53:41;100976.00;;;10.43;79.85
53619;BME280;68717;53.040;18.488;2023-05-02T00:53:54;100973.31;;;10.43;80.45
53619;BME280;68717;53.040;18.488;2023-05-02T00:54:09;100967.22;;;10.41;81.26
53619;BME280;68717;53.040;18.488;2023-05-02T00:54:23;100972.56;;;10.41;81.70
53619;BME280;68717;53.040;18.488;2023-05-02T00:54:36;100965.50;;;10.40;82.23
53619;BME280;68717;53.040;18.488;2023-05-02T00:54:49;100967.22;;;10.41;82.30
53619;BME280;68717;53.040;18.488;2023-05-02T00:55:03;100972.56;;;10.41;82.04
53619;BME280;68717;53.040;18.488;2023-05-02T00:55:16;100968.91;;;10.42;81.46
53619;BME280;68717;53.040;18.488;2023-05-02T00:55:28;100972.56;;;10.41;80.96
53619;BME280;68717;53.040;18.488;2023-05-02T00:55:42;100968.91;;;10.42;80.61
53619;BME280;68717;53.040;18.488;2023-05-02T00:55:56;100968.91;;;10.42;80.38
53619;BME280;68717;53.040;18.488;2023-05-02T00:56:09;100972.56;;;10.41;79.93
53619;BME280;68717;53.040;18.488;2023-05-02T00:56:22;100972.56;;;10.41;79.79
53619;BME280;68717;53.040;18.488;2023-05-02T00:56:35;100969.16;;;10.39;79.97
53619;BME280;68717;53.040;18.488;2023-05-02T00:56:48;100970.88;;;10.40;80.16
53619;BME280;68717;53.040;18.488;2023-05-02T00:57:00;100967.34;;;10.40;80.28
53619;BME280;68717;53.040;18.488;2023-05-02T00:57:14;100963.81;;;10.39;80.20
53619;BME280;68717;53.040;18.488;2023-05-02T00:57:27;100964.66;;;10.40;79.84
53619;BME280;68717;53.040;18.488;2023-05-02T00:57:39;100969.16;;;10.39;79.72
53619;BME280;68717;53.040;18.488;2023-05-02T00:57:52;100963.81;;;10.39;79.44
53619;BME280;68717;53.040;18.488;2023-05-02T00:58:10;100969.16;;;10.39;79.27
53619;BME280;68717;53.040;18.488;2023-05-02T00:58:23;100963.81;;;10.39;79.43
53619;BME280;68717;53.040;18.488;2023-05-02T00:58:38;100965.50;;;10.40;79.51
53619;BME280;68717;53.040;18.488;2023-05-02T00:58:52;100961.97;;;10.40;78.89
53619;BME280;68717;53.040;18.488;2023-05-02T00:59:06;100966.50;;;10.39;78.74
53619;BME280;68717;53.040;18.488;2023-05-02T00:59:20;100963.81;;;10.39;78.56
53619;BME280;68717;53.040;18.488;2023-05-02T00:59:33;100958.44;;;10.39;78.78
53619;BME280;68717;53.040;18.488;2023-05-02T00:59:47;100963.81;;;10.39;78.57
53619;BME280;68717;53.040;18.488;2023-05-02T01:00:00;100963.81;;;10.39;78.32
53619;BME280;68717;53.040;18.488;2023-05-02T01:00:13;100958.44;;;10.39;78.48
53619;BME280;68717;53.040;18.488;2023-05-02T01:00:45;100961.13;;;10.39;78.58
53619;BME280;68717;53.040;18.488;2023-05-02T01:01:15;100956.72;;;10.38;78.56
53619;BME280;68717;53.040;18.488;2023-05-02T01:01:41;100962.09;;;10.38;78.12
53619;BME280;68717;53.040;18.488;2023-05-02T01:02:05;100954.94;;;10.39;77.88
53619;BME280;68717;53.040;18.488;2023-05-02T01:02:31;100951.38;;;10.38;77.69
53619;BME280;68717;53.040;18.488;2023-05-02T01:02:50;100954.94;;;10.39;77.82
53619;BME280;68717;53.040;18.488;2023-05-02T01:03:11;100957.59;;;10.39;77.93
53619;BME280;68717;53.040;18.488;2023-05-02T01:03:38;100947.72;;;10.39;78.14
53619;BME280;68717;53.040;18.488;2023-05-02T01:04:01;100960.13;;;10.40;77.95
53619;BME280;68717;53.040;18.488;2023-05-02T01:04:30;100958.44;;;10.39;78.04
53619;BME280;68717;53.040;18.488;2023-05-02T01:04:49;100952.97;;;10.41;78.43
53619;BME280;68717;53.040;18.488;2023-05-02T01:05:10;100953.81;;;10.41;78.83
53619;BME280;68717;53.040;18.488;2023-05-02T01:05:32;100959.06;;;10.43;79.29
53619;BME280;68717;53.040;18.488;2023-05-02T01:05:53;100959.06;;;10.43;79.78
53619;BME280;68717;53.040;18.488;2023-05-02T01:06:18;100964.44;;;10.43;79.56
53619;BME280;68717;53.040;18.488;2023-05-02T01:06:39;100956.38;;;10.43;79.63
53619;BME280;68717;53.040;18.488;2023-05-02T01:07:08;100958.19;;;10.42;79.59
53619;BME280;68717;53.040;18.488;2023-05-02T01:07:37;100959.91;;;10.43;79.71
53619;BME280;68717;53.040;18.488;2023-05-02T01:08:09;100961.84;;;10.41;80.14
53619;BME280;68717;53.040;18.488;2023-05-02T01:08:28;100963.56;;;10.42;80.61
53619;BME280;68717;53.040;18.488;2023-05-02T01:08:50;100964.53;;;10.41;80.88
53619;BME280;68717;53.040;18.488;2023-05-02T01:09:16;100961.97;;;10.40;81.10
53619;BME280;68717;53.040;18.488;2023-05-02T01:09:40;100958.56;;;10.38;81.87
53619;BME280;68717;53.040;18.488;2023-05-02T01:10:00;100963.94;;;10.38;81.98
53619;BME280;68717;53.040;18.488;2023-05-02T01:10:22;100961.38;;;10.36;82.46
53619;BME280;68717;53.040;18.488;2023-05-02T01:10:47;100956.88;;;10.37;82.32
53619;BME280;68717;53.040;18.488;2023-05-02T01:11:04;100958.69;;;10.36;82.58
53619;BME280;68717;53.040;18.488;2023-05-02T01:11:27;100959.69;;;10.35;82.06
53619;BME280;68717;53.040;18.488;2023-05-02T01:11:53;100957.00;;;10.35;81.40
53619;BME280;68717;53.040;18.488;2023-05-02T01:12:15;100961.50;;;10.35;80.25
53619;BME280;68717;53.040;18.488;2023-05-02T01:12:32;100955.31;;;10.34;79.98
53619;BME280;68717;53.040;18.488;2023-05-02T01:12:58;100966.88;;;10.35;79.09
53619;BME280;68717;53.040;18.488;2023-05-02T01:13:20;100962.34;;;10.35;78.63
53619;BME280;68717;53.040;18.488;2023-05-02T01:13:34;100958.00;;;10.34;78.51
53619;BME280;68717;53.040;18.488;2023-05-02T01:13:50;100953.47;;;10.35;78.22
53619;BME280;68717;53.040;18.488;2023-05-02T01:14:05;100958.09;;;10.33;78.33